Terminal Aerodrome Forecast
Issued by NWS Springfield, MO

Home | Current Version | Previous Version | Text Only | Print | Product List | Glossary Off
Versions: 1 2 3 4 5 6 7 8 9 10 11 12 13 14 15

000
FTUS43 KSGF 301120
TAFSGF
TAF
KSGF 301120Z 3012/3112 15005KT P6SM BKN250
     FM302000 18007KT P6SM VCTS SCT050CB BKN250 PROB30 3021/3024 5SM
      -TSRA SCT030CB BKN050
     FM310100 16007KT P6SM BKN200=

USA.gov is the U.S. government's official web portal to all federal, state and local government web resources and services.